PASV/SVW METAR and TAF weather

Enter ICAO airport designator
Station Type Date Time Source
PASV METAR 2019/05/19 19:55 UTC NOAA

PASV 191955Z AUTO 01011KT 340V060 10SM CLR 12/M01 A2965 RMK AO2 SLP042 T01171015


Station Type Date Time Source
PASV Decoded METAR 2019/05/19 19:55 UTC NOAA

Sparrevohn Airways Facilities Sector, AK, United States (PASV) 61-06N 155-34W
May 19, 2019 - 03:55 PM EDT / 2019.05.19 1955 UTC
Wind: from the N (010 degrees) at 13 MPH (11 KT) (direction variable):0
Visibility: 10 mile(s):0
Sky conditions: clear
Temperature: 53.1 F (11.7 C)
Dew Point: 29.3 F (-1.5 C)
Relative Humidity: 39%
Pressure (altimeter): 29.65 in. Hg (1004 hPa)
ob: PASV 191955Z AUTO 01011KT 340V060 10SM CLR 12/M01 A2965 RMK AO2 SLP042 T01171015
cycle: 20

Station Type Date Time Source
PASV TAF 2012/01/12 14:57 UTC NOAA

TAF
AMD PASV 1214/1320 33010G15KT 4800 -SN BLSN SCT003 SCT110 QNH2984INS
BECMG 1221/1222 VRB06KT 9999 NSW FEW010 SCT110 QNH3000INS LIMITED METWATCH TM25/1300Z TM37/1315Z
AMD 121453

Example: see airport list